createdAt,value
2019-05-26T00:01:32.685Z,15.10
2019-05-26T00:04:05.379Z,15.07
2019-05-26T00:06:37.726Z,14.95
2019-05-26T00:09:09.379Z,15.13
2019-05-26T00:11:40.881Z,15.09
2019-05-26T00:14:12.356Z,15.06
2019-05-26T00:16:43.691Z,15.01
2019-05-26T00:19:16.220Z,14.85
2019-05-26T00:21:47.556Z,14.83
2019-05-26T00:24:18.842Z,14.85
2019-05-26T00:26:50.204Z,14.71
2019-05-26T00:29:21.661Z,14.83
2019-05-26T00:31:53.262Z,14.83
2019-05-26T00:34:24.765Z,14.78
2019-05-26T00:36:56.134Z,14.83
2019-05-26T00:39:27.807Z,14.66
2019-05-26T00:41:59.306Z,14.58
2019-05-26T00:44:30.741Z,14.59
2019-05-26T00:47:02.309Z,14.37
2019-05-26T00:49:33.754Z,14.33
2019-05-26T00:52:05.222Z,14.61
2019-05-26T00:54:36.674Z,14.69
2019-05-26T00:57:08.275Z,14.53
2019-05-26T00:59:39.720Z,14.19
2019-05-26T01:02:11.106Z,14.04
2019-05-26T01:04:42.622Z,13.59
2019-05-26T01:07:14.098Z,13.16
2019-05-26T01:09:45.444Z,13.73
2019-05-26T01:12:16.941Z,13.92
2019-05-26T01:14:48.238Z,13.66
2019-05-26T01:17:19.801Z,13.47
2019-05-26T01:19:51.220Z,13.54
2019-05-26T01:22:23.351Z,13.48
2019-05-26T01:24:54.809Z,13.51
2019-05-26T01:27:26.229Z,13.56
2019-05-26T01:29:57.536Z,13.41
2019-05-26T01:32:29.008Z,13.27
2019-05-26T01:35:00.477Z,13.39
2019-05-26T01:37:32.200Z,13.48
2019-05-26T01:40:04.654Z,13.26
2019-05-26T01:42:36.158Z,13.22
2019-05-26T01:45:11.497Z,13.22
2019-05-26T01:47:42.850Z,13.23
2019-05-26T01:50:14.259Z,12.68
2019-05-26T01:52:45.617Z,13.03
2019-05-26T01:55:17.072Z,13.08
2019-05-26T01:57:48.594Z,13.09
2019-05-26T02:00:20.448Z,13.19
2019-05-26T02:02:51.829Z,12.92
2019-05-26T02:05:23.386Z,12.99
2019-05-26T02:07:54.917Z,12.94
2019-05-26T02:10:26.437Z,13.01
2019-05-26T02:12:58.045Z,13.07
2019-05-26T02:15:31.339Z,12.93
2019-05-26T02:18:02.928Z,12.78
2019-05-26T02:20:34.468Z,12.67
2019-05-26T02:23:05.980Z,12.72
2019-05-26T02:25:37.361Z,12.47
2019-05-26T02:28:08.797Z,12.31
2019-05-26T02:30:40.273Z,12.58
2019-05-26T02:33:11.654Z,12.56
2019-05-26T02:35:43.037Z,12.63
2019-05-26T02:38:14.394Z,12.02
2019-05-26T02:40:45.781Z,11.57
2019-05-26T02:43:17.118Z,12.03
2019-05-26T02:45:48.500Z,12.23
2019-05-26T02:48:20.142Z,12.32
2019-05-26T02:50:51.488Z,12.31
2019-05-26T02:53:24.841Z,11.98
2019-05-26T02:55:56.693Z,12.04
2019-05-26T02:58:27.971Z,12.02
2019-05-26T03:00:59.719Z,11.11
2019-05-26T03:03:31.481Z,11.03
2019-05-26T03:06:04.367Z,11.41
2019-05-26T03:08:38.451Z,11.50
2019-05-26T03:11:11.281Z,11.77
2019-05-26T03:13:45.677Z,11.83
2019-05-26T03:16:18.983Z,11.85
2019-05-26T03:18:52.779Z,11.93
2019-05-26T03:21:25.828Z,11.84
2019-05-26T03:23:57.462Z,11.16
2019-05-26T03:26:30.617Z,11.41
2019-05-26T03:29:02.004Z,11.31
2019-05-26T03:31:33.329Z,11.38
2019-05-26T03:34:04.824Z,11.44
2019-05-26T03:36:36.316Z,11.53
2019-05-26T03:39:08.584Z,10.87
2019-05-26T03:41:39.996Z,10.82
2019-05-26T03:44:11.428Z,10.65
2019-05-26T03:46:42.925Z,10.72
2019-05-26T03:49:14.261Z,10.71
2019-05-26T03:51:45.792Z,10.79
2019-05-26T03:54:17.098Z,11.08
2019-05-26T03:56:48.566Z,11.34
2019-05-26T03:59:21.081Z,11.28
2019-05-26T04:01:57.341Z,10.85
2019-05-26T04:04:25.598Z,10.68
2019-05-26T04:06:58.020Z,10.56
2019-05-26T04:09:29.345Z,10.60
2019-05-26T04:12:00.721Z,10.64
2019-05-26T04:14:32.108Z,10.94
2019-05-26T04:17:03.587Z,11.18
2019-05-26T04:19:34.883Z,11.08
2019-05-26T04:22:06.339Z,11.25
2019-05-26T04:24:41.184Z,11.44
2019-05-26T04:27:12.883Z,11.27
2019-05-26T04:29:44.261Z,10.92
2019-05-26T04:32:15.581Z,11.01
2019-05-26T04:34:47.061Z,11.07
2019-05-26T04:37:18.423Z,11.32
2019-05-26T04:39:49.744Z,11.45
2019-05-26T04:42:21.165Z,11.00
2019-05-26T04:44:53.519Z,10.83
2019-05-26T04:47:24.808Z,10.68
2019-05-26T04:49:56.096Z,10.88
2019-05-26T04:52:27.558Z,11.20
2019-05-26T04:54:59.052Z,11.56
2019-05-26T04:57:31.168Z,11.47
2019-05-26T05:00:02.648Z,11.32
2019-05-26T05:02:34.404Z,11.53
2019-05-26T05:05:11.319Z,11.57
2019-05-26T05:07:42.710Z,11.80
2019-05-26T05:10:14.423Z,12.03
2019-05-26T05:13:00.957Z,11.98
2019-05-26T05:15:33.047Z,11.99
2019-05-26T05:18:05.844Z,12.23
2019-05-26T05:20:37.403Z,12.44
2019-05-26T05:23:10.137Z,12.61
2019-05-26T05:25:42.490Z,12.90
2019-05-26T05:28:21.580Z,12.92
2019-05-26T05:30:52.954Z,13.20
2019-05-26T05:33:24.415Z,13.37
2019-05-26T05:35:55.915Z,13.50
2019-05-26T05:38:27.439Z,13.49
2019-05-26T05:41:00.368Z,13.59
2019-05-26T05:43:31.932Z,13.70
2019-05-26T05:46:03.534Z,13.75
2019-05-26T05:48:34.927Z,13.91
2019-05-26T05:51:06.355Z,13.91
2019-05-26T05:53:37.780Z,14.11
2019-05-26T05:56:09.280Z,14.24
2019-05-26T05:58:40.705Z,14.39
2019-05-26T06:01:12.177Z,14.65
2019-05-26T06:03:43.675Z,14.57
2019-05-26T06:06:15.053Z,14.60
2019-05-26T06:08:46.799Z,14.56
2019-05-26T06:11:18.561Z,14.63
2019-05-26T06:13:50.035Z,14.81
2019-05-26T06:16:34.702Z,15.12
2019-05-26T06:19:06.182Z,15.17
2019-05-26T06:21:37.435Z,15.40
2019-05-26T06:24:08.873Z,15.65
2019-05-26T06:26:40.355Z,15.63
2019-05-26T06:29:11.641Z,15.65
2019-05-26T06:31:43.248Z,15.67
2019-05-26T06:34:14.638Z,15.81
2019-05-26T06:36:45.949Z,15.72
2019-05-26T06:39:17.232Z,15.98
2019-05-26T06:41:48.518Z,16.09
2019-05-26T06:44:19.883Z,15.95
2019-05-26T06:46:51.604Z,16.06
2019-05-26T06:49:23.090Z,16.16
2019-05-26T06:51:54.416Z,16.55
2019-05-26T06:54:25.690Z,16.35
2019-05-26T06:56:57.030Z,16.79
2019-05-26T06:59:28.318Z,17.03
2019-05-26T07:01:59.838Z,17.06
2019-05-26T07:04:31.131Z,17.28
2019-05-26T07:07:16.715Z,17.13
2019-05-26T07:09:49.228Z,16.85
2019-05-26T07:12:20.583Z,17.54
2019-05-26T07:14:52.072Z,17.65
2019-05-26T07:17:23.398Z,17.62
2019-05-26T07:19:54.885Z,17.78
2019-05-26T07:22:26.169Z,17.84
2019-05-26T07:24:57.586Z,18.06
2019-05-26T07:27:30.225Z,17.86
2019-05-26T07:30:01.629Z,17.76
2019-05-26T07:32:33.157Z,18.05
2019-05-26T07:35:06.278Z,18.21
2019-05-26T07:37:37.923Z,17.99
2019-05-26T07:40:10.179Z,17.91
2019-05-26T07:42:42.211Z,18.13
2019-05-26T07:45:15.523Z,18.38
2019-05-26T07:47:46.901Z,18.27
2019-05-26T07:50:18.470Z,18.43
2019-05-26T07:52:50.051Z,18.44
2019-05-26T07:55:21.554Z,18.28
2019-05-26T07:57:53.106Z,19.04
2019-05-26T08:00:25.276Z,19.09
2019-05-26T08:02:56.694Z,18.89
2019-05-26T08:05:29.636Z,19.07
2019-05-26T08:08:12.040Z,18.94
2019-05-26T08:10:34.348Z,18.78
2019-05-26T08:13:08.269Z,19.36
2019-05-26T08:15:41.389Z,19.32
2019-05-26T08:18:12.764Z,19.79
2019-05-26T08:20:44.131Z,19.36
2019-05-26T08:23:15.624Z,19.59
2019-05-26T08:25:47.105Z,19.28
2019-05-26T08:28:18.580Z,19.59
2019-05-26T08:30:49.964Z,19.45
2019-05-26T08:33:21.348Z,19.62
2019-05-26T08:35:52.911Z,19.90
2019-05-26T08:38:24.261Z,19.87
2019-05-26T08:40:56.503Z,19.93
2019-05-26T08:43:28.443Z,19.70
2019-05-26T08:45:59.773Z,19.81
2019-05-26T08:48:32.137Z,20.15
2019-05-26T08:51:03.512Z,19.89
2019-05-26T08:53:35.004Z,20.23
2019-05-26T08:56:06.500Z,20.63
2019-05-26T08:58:38.909Z,21.46
2019-05-26T09:01:10.373Z,20.50
2019-05-26T09:03:42.995Z,21.00
2019-05-26T09:06:14.400Z,20.98
2019-05-26T09:08:49.438Z,20.80
2019-05-26T09:11:21.165Z,21.02
2019-05-26T09:13:52.596Z,21.37
2019-05-26T09:16:23.861Z,21.17
2019-05-26T09:18:55.146Z,21.65
2019-05-26T09:21:26.437Z,20.87
2019-05-26T09:23:58.800Z,20.60
2019-05-26T09:26:30.144Z,20.91
2019-05-26T09:29:01.556Z,20.64
2019-05-26T09:31:34.210Z,20.50
2019-05-26T09:34:06.012Z,20.54
2019-05-26T09:36:37.397Z,21.24
2019-05-26T09:39:10.024Z,21.56
2019-05-26T09:41:44.253Z,21.51
2019-05-26T09:44:16.027Z,22.42
2019-05-26T09:46:47.513Z,22.64
2019-05-26T09:49:18.987Z,22.14
2019-05-26T09:51:50.648Z,22.17
2019-05-26T09:54:25.677Z,21.60
2019-05-26T09:56:57.032Z,21.26
2019-05-26T09:59:28.374Z,21.79
2019-05-26T10:01:59.736Z,20.96
2019-05-26T10:04:31.020Z,21.06
2019-05-26T10:07:02.380Z,21.22
2019-05-26T10:09:35.233Z,21.22
2019-05-26T10:12:07.278Z,22.04
2019-05-26T10:14:38.776Z,21.73
2019-05-26T10:17:10.253Z,22.03
2019-05-26T10:19:41.716Z,21.69
2019-05-26T10:22:13.500Z,22.06
2019-05-26T10:24:45.637Z,23.03
2019-05-26T10:27:17.153Z,22.94
2019-05-26T10:29:48.405Z,22.64
2019-05-26T10:32:19.837Z,22.34
2019-05-26T10:34:51.377Z,22.96
2019-05-26T10:37:22.790Z,23.39
2019-05-26T10:39:55.607Z,23.22
2019-05-26T10:42:27.010Z,23.59
2019-05-26T10:44:58.931Z,23.55
2019-05-26T10:47:32.305Z,23.04
2019-05-26T10:50:10.670Z,22.98
2019-05-26T10:52:42.023Z,22.75
2019-05-26T10:55:13.624Z,23.05
2019-05-26T10:57:46.024Z,23.34
2019-05-26T11:00:18.389Z,23.02
2019-05-26T11:03:17.676Z,23.17
2019-05-26T11:05:49.088Z,22.96
2019-05-26T11:08:20.640Z,23.19
2019-05-26T11:10:51.979Z,23.53
2019-05-26T11:13:25.224Z,23.31
2019-05-26T11:15:56.794Z,24.10
2019-05-26T11:18:28.150Z,23.48
2019-05-26T11:20:59.402Z,23.97
2019-05-26T11:23:31.156Z,23.82
2019-05-26T11:26:03.752Z,24.22
2019-05-26T11:28:35.153Z,24.28
2019-05-26T11:31:06.663Z,24.20
2019-05-26T11:33:38.016Z,23.77
2019-05-26T11:36:09.318Z,24.63
2019-05-26T11:38:40.676Z,24.25
2019-05-26T11:41:12.147Z,24.20
2019-05-26T11:43:43.686Z,24.43
2019-05-26T11:46:17.319Z,23.93
2019-05-26T11:48:49.052Z,24.09
2019-05-26T11:51:20.412Z,23.79
2019-05-26T11:53:51.765Z,24.20
2019-05-26T11:56:23.272Z,24.88
2019-05-26T11:58:54.583Z,24.19
2019-05-26T12:01:26.904Z,23.97
2019-05-26T12:03:58.414Z,24.31
2019-05-26T12:06:29.816Z,23.72
2019-05-26T12:09:01.097Z,24.15
2019-05-26T12:11:33.898Z,23.92
2019-05-26T12:14:05.513Z,24.02
2019-05-26T12:16:37.183Z,23.28
2019-05-26T12:19:08.686Z,23.48
2019-05-26T12:21:40.280Z,24.71
2019-05-26T12:24:11.831Z,24.61
2019-05-26T12:26:43.191Z,24.58
2019-05-26T12:29:14.510Z,24.31
2019-05-26T12:31:45.846Z,24.37
2019-05-26T12:34:17.205Z,24.66
2019-05-26T12:36:48.579Z,25.20
2019-05-26T12:39:19.971Z,25.06
2019-05-26T12:41:51.623Z,24.79
2019-05-26T12:44:23.064Z,24.96
2019-05-26T12:46:54.820Z,25.39
2019-05-26T12:49:27.971Z,24.42
2019-05-26T12:51:59.507Z,25.51
2019-05-26T12:54:31.076Z,24.70
2019-05-26T12:57:02.686Z,24.21
2019-05-26T12:59:34.297Z,25.10
2019-05-26T13:02:06.377Z,25.79
2019-05-26T13:04:38.178Z,25.50
2019-05-26T13:07:09.619Z,26.33
2019-05-26T13:09:41.116Z,25.89
2019-05-26T13:12:12.380Z,25.49
2019-05-26T13:14:43.725Z,25.50
2019-05-26T13:17:15.243Z,26.32
2019-05-26T13:19:52.667Z,25.94
2019-05-26T13:22:25.034Z,25.46
2019-05-26T13:24:56.972Z,25.38
2019-05-26T13:27:28.404Z,24.82
2019-05-26T13:29:59.778Z,25.69
2019-05-26T13:32:31.037Z,26.26
2019-05-26T13:35:25.472Z,25.39
2019-05-26T13:37:58.191Z,25.19
2019-05-26T13:40:29.795Z,25.99
2019-05-26T13:43:02.125Z,26.30
2019-05-26T13:45:34.200Z,26.36
2019-05-26T13:48:07.091Z,26.65
2019-05-26T13:50:38.464Z,26.25
2019-05-26T13:53:09.801Z,26.77
2019-05-26T13:55:41.277Z,25.71
2019-05-26T13:58:12.606Z,25.45
2019-05-26T14:00:44.080Z,25.91
2019-05-26T14:03:15.565Z,26.25
2019-05-26T14:05:47.035Z,25.73
2019-05-26T14:08:18.473Z,25.43
2019-05-26T14:10:49.826Z,25.87
2019-05-26T14:13:21.271Z,25.00
2019-05-26T14:15:56.775Z,25.57
2019-05-26T14:18:37.193Z,25.70
2019-05-26T14:21:08.563Z,25.56
2019-05-26T14:23:40.028Z,25.96
2019-05-26T14:26:13.451Z,25.92
2019-05-26T14:28:49.685Z,25.96
2019-05-26T14:31:21.064Z,25.77
2019-05-26T14:33:53.644Z,25.72
2019-05-26T14:36:25.073Z,25.73
2019-05-26T14:39:02.727Z,25.92
2019-05-26T14:41:34.215Z,25.63
2019-05-26T14:44:05.911Z,25.13
2019-05-26T14:46:37.870Z,25.49
2019-05-26T14:49:10.349Z,25.81
2019-05-26T14:51:41.785Z,25.29
2019-05-26T14:54:13.195Z,25.45
2019-05-26T14:56:44.575Z,26.54
2019-05-26T14:59:16.131Z,26.19
2019-05-26T15:02:05.740Z,25.64
2019-05-26T15:04:37.134Z,26.22
2019-05-26T15:07:08.647Z,25.75
2019-05-26T15:09:40.127Z,24.58
2019-05-26T15:12:11.516Z,24.68
2019-05-26T15:14:43.422Z,25.14
2019-05-26T15:17:15.025Z,25.61
2019-05-26T15:19:46.405Z,25.29
2019-05-26T15:22:17.670Z,25.80
2019-05-26T15:24:49.033Z,25.43
2019-05-26T15:27:20.427Z,24.83
2019-05-26T15:29:51.754Z,24.81
2019-05-26T15:32:23.056Z,25.46
2019-05-26T15:34:54.416Z,25.77
2019-05-26T15:37:25.673Z,25.57
2019-05-26T15:39:56.999Z,25.60
2019-05-26T15:42:28.601Z,26.06
2019-05-26T15:45:00.158Z,26.42
2019-05-26T15:47:31.665Z,26.15
2019-05-26T15:50:03.562Z,25.70
2019-05-26T15:52:35.004Z,24.82
2019-05-26T15:55:07.031Z,24.84
2019-05-26T15:57:38.491Z,25.22
2019-05-26T16:00:10.487Z,24.12
2019-05-26T16:02:41.997Z,24.14
2019-05-26T16:05:13.449Z,24.82
2019-05-26T16:07:44.935Z,24.55
2019-05-26T16:10:17.054Z,23.92
2019-05-26T16:12:48.585Z,23.66
2019-05-26T16:15:19.948Z,23.83
2019-05-26T16:17:51.428Z,24.21
2019-05-26T16:20:22.930Z,25.65
2019-05-26T16:22:54.447Z,25.24
2019-05-26T16:25:25.899Z,24.79
2019-05-26T16:27:57.261Z,24.88
2019-05-26T16:30:28.728Z,25.16
2019-05-26T16:33:00.072Z,25.01
2019-05-26T16:35:31.443Z,25.43
2019-05-26T16:38:02.833Z,25.30
2019-05-26T16:40:34.858Z,25.01
2019-05-26T16:43:06.240Z,24.82
2019-05-26T16:45:37.597Z,25.35
2019-05-26T16:48:08.906Z,24.36
2019-05-26T16:50:40.397Z,24.53
2019-05-26T16:53:11.701Z,24.05
2019-05-26T16:55:43.580Z,24.81
2019-05-26T16:58:15.122Z,24.91
2019-05-26T17:00:46.486Z,24.48
2019-05-26T17:03:17.881Z,24.28
2019-05-26T17:05:49.258Z,23.65
2019-05-26T17:08:20.639Z,23.90
2019-05-26T17:10:51.998Z,24.25
2019-05-26T17:13:23.400Z,24.15
2019-05-26T17:15:54.836Z,23.62
2019-05-26T17:18:26.146Z,24.51
2019-05-26T17:20:59.192Z,25.07
2019-05-26T17:23:30.466Z,24.36
2019-05-26T17:26:01.863Z,24.01
2019-05-26T17:28:33.251Z,24.03
2019-05-26T17:31:05.159Z,24.15
2019-05-26T17:33:36.403Z,23.93
2019-05-26T17:36:07.700Z,23.71
2019-05-26T17:38:39.023Z,23.49
2019-05-26T17:41:10.389Z,23.59
2019-05-26T17:43:41.888Z,24.19
2019-05-26T17:46:15.253Z,23.91
2019-05-26T17:48:46.811Z,23.54
2019-05-26T17:51:18.385Z,23.74
2019-05-26T17:53:52.670Z,24.11
2019-05-26T17:56:24.184Z,24.00
2019-05-26T17:58:55.669Z,23.99
2019-05-26T18:01:27.089Z,23.16
2019-05-26T18:03:58.462Z,22.86
2019-05-26T18:06:31.463Z,22.57
2019-05-26T18:09:02.845Z,22.10
2019-05-26T18:11:34.410Z,22.16
2019-05-26T18:14:06.339Z,21.90
2019-05-26T18:16:37.907Z,21.97
2019-05-26T18:19:09.360Z,22.04
2019-05-26T18:21:41.163Z,21.82
2019-05-26T18:24:12.522Z,21.59
2019-05-26T18:26:44.141Z,21.46
2019-05-26T18:29:17.193Z,21.02
2019-05-26T18:31:48.601Z,21.21
2019-05-26T18:34:20.108Z,21.23
2019-05-26T18:36:51.643Z,21.12
2019-05-26T18:39:22.969Z,21.03
2019-05-26T18:41:54.636Z,20.88
2019-05-26T18:44:29.592Z,20.73
2019-05-26T18:47:00.899Z,20.55
2019-05-26T18:49:32.264Z,20.62
2019-05-26T18:52:03.739Z,20.27
2019-05-26T18:54:35.197Z,20.38
2019-05-26T18:57:06.798Z,20.21
2019-05-26T18:59:40.361Z,19.93
2019-05-26T19:02:11.832Z,19.60
2019-05-26T19:04:54.800Z,19.85
2019-05-26T19:07:26.256Z,19.85
2019-05-26T19:09:57.940Z,19.70
2019-05-26T19:12:29.455Z,19.38
2019-05-26T19:15:02.895Z,19.25
2019-05-26T19:17:35.202Z,19.26
2019-05-26T19:20:16.536Z,19.19
2019-05-26T19:22:43.959Z,18.98
2019-05-26T19:25:15.409Z,18.66
2019-05-26T19:27:46.767Z,18.41
2019-05-26T19:30:22.281Z,18.54
2019-05-26T19:32:53.777Z,18.51
2019-05-26T19:35:25.208Z,18.27
2019-05-26T19:37:56.815Z,18.47
2019-05-26T19:40:28.473Z,18.32
2019-05-26T19:42:59.816Z,18.17
2019-05-26T19:45:34.030Z,18.13
2019-05-26T19:48:05.544Z,18.36
2019-05-26T19:50:36.973Z,17.96
2019-05-26T19:53:08.435Z,17.99
2019-05-26T19:55:39.963Z,17.88
2019-05-26T19:58:12.057Z,18.06
2019-05-26T20:00:46.970Z,17.63
2019-05-26T20:03:18.360Z,17.35
2019-05-26T20:05:49.739Z,17.35
2019-05-26T20:08:21.161Z,17.22
2019-05-26T20:10:52.846Z,17.11
2019-05-26T20:13:24.279Z,16.93
2019-05-26T20:15:55.729Z,16.88
2019-05-26T20:18:27.821Z,17.19
2019-05-26T20:20:59.286Z,17.38
2019-05-26T20:23:30.880Z,17.21
2019-05-26T20:26:02.555Z,16.91
2019-05-26T20:28:34.037Z,16.64
2019-05-26T20:31:06.608Z,16.76
2019-05-26T20:33:38.003Z,16.63
2019-05-26T20:36:09.247Z,16.62
2019-05-26T20:38:40.794Z,16.69
2019-05-26T20:41:12.306Z,17.09
2019-05-26T20:43:43.703Z,17.26
2019-05-26T20:46:15.073Z,17.39
2019-05-26T20:48:46.590Z,17.43
2019-05-26T20:51:18.077Z,17.19
2019-05-26T20:53:49.472Z,16.46
2019-05-26T20:56:20.749Z,16.44
2019-05-26T20:58:52.145Z,16.21
2019-05-26T21:01:23.394Z,16.19
2019-05-26T21:03:55.845Z,16.35
2019-05-26T21:06:27.116Z,15.95
2019-05-26T21:08:58.530Z,16.14
2019-05-26T21:11:29.996Z,16.13
2019-05-26T21:14:01.817Z,16.16
2019-05-26T21:16:33.275Z,15.94
2019-05-26T21:19:05.818Z,15.89
2019-05-26T21:21:37.749Z,15.89
2019-05-26T21:24:09.192Z,15.81
2019-05-26T21:26:40.477Z,15.90
2019-05-26T21:29:11.943Z,15.83
2019-05-26T21:31:43.446Z,15.70
2019-05-26T21:34:15.132Z,15.54
2019-05-26T21:36:46.497Z,15.69
2019-05-26T21:39:17.982Z,15.57
2019-05-26T21:41:49.247Z,15.63
2019-05-26T21:44:20.570Z,15.60
2019-05-26T21:46:51.956Z,15.56
2019-05-26T21:49:23.400Z,15.53
2019-05-26T21:51:54.694Z,15.84
2019-05-26T21:54:26.053Z,15.61
2019-05-26T21:56:57.421Z,15.78
2019-05-26T21:59:28.696Z,15.62
2019-05-26T22:02:00.217Z,15.44
2019-05-26T22:04:31.619Z,15.27
2019-05-26T22:07:02.913Z,15.46
2019-05-26T22:09:34.748Z,15.46
2019-05-26T22:12:06.182Z,15.40
2019-05-26T22:14:37.608Z,15.38
2019-05-26T22:17:09.031Z,15.23
2019-05-26T22:19:40.297Z,15.35
2019-05-26T22:22:11.611Z,15.43
2019-05-26T22:24:42.870Z,15.31
2019-05-26T22:27:14.201Z,15.39
2019-05-26T22:29:45.616Z,15.51
2019-05-26T22:32:17.023Z,15.42
2019-05-26T22:34:48.351Z,15.26
2019-05-26T22:37:19.892Z,15.09
2019-05-26T22:39:51.163Z,15.08
2019-05-26T22:42:22.935Z,14.93
2019-05-26T22:44:55.290Z,14.93
2019-05-26T22:47:26.730Z,14.82
2019-05-26T22:50:00.508Z,14.66
2019-05-26T22:52:32.686Z,14.67
2019-05-26T22:55:05.882Z,14.57
2019-05-26T22:57:37.185Z,14.54
2019-05-26T23:00:11.014Z,14.37
2019-05-26T23:02:42.491Z,14.21
2019-05-26T23:05:13.982Z,14.26
2019-05-26T23:07:45.422Z,14.45
2019-05-26T23:10:16.749Z,14.40
2019-05-26T23:12:48.049Z,14.46
2019-05-26T23:15:20.123Z,14.32
2019-05-26T23:17:51.603Z,14.12
2019-05-26T23:20:22.877Z,13.97
2019-05-26T23:22:54.322Z,14.36
2019-05-26T23:25:25.659Z,14.32
2019-05-26T23:27:57.132Z,14.10
2019-05-26T23:30:28.557Z,14.30
2019-05-26T23:32:59.945Z,14.39
2019-05-26T23:35:32.870Z,14.40
2019-05-26T23:38:04.232Z,14.62
2019-05-26T23:40:35.723Z,14.66
2019-05-26T23:43:06.997Z,14.58
2019-05-26T23:45:38.296Z,14.64
2019-05-26T23:48:10.717Z,14.73
2019-05-26T23:50:42.194Z,14.77
2019-05-26T23:53:13.461Z,14.69
2019-05-26T23:55:45.897Z,14.63
2019-05-26T23:58:17.223Z,14.60
